Time;durP1;ratioP1;P1;durP2;ratioP2;P2;SDS_P1;SDS_P2;PMS_P1;PMS_P2;Temp;Humidity;BMP_temperature;BMP_pressure;BME280_temperature;BME280_humidity;BME280_pressure;Samples;Min_cycle;Max_cycle;Signal;HPM_P1;HPM_P2
2023/08/09 00:02:21;;;;;;;9.35;2.83;;;12.60;99.90;;;;;;5082508;28;20499;-72
2023/08/09 00:04:47;;;;;;;9.43;2.58;;;12.60;99.90;;;;;;5082810;28;20055;-68
2023/08/09 00:07:12;;;;;;;8.60;2.35;;;12.60;99.90;;;;;;5083146;28;20032;-70
2023/08/09 00:09:39;;;;;;;6.78;2.80;;;12.60;99.90;;;;;;5084339;28;20055;-70
2023/08/09 00:12:05;;;;;;;8.77;2.50;;;12.50;99.90;;;;;;5084073;28;20678;-70
2023/08/09 00:14:31;;;;;;;7.65;2.25;;;12.50;99.90;;;;;;5083301;28;20029;-69
2023/08/09 00:16:56;;;;;;;9.77;2.15;;;12.50;99.90;;;;;;5083665;28;20103;-68
2023/08/09 00:19:22;;;;;;;12.63;2.70;;;12.50;99.90;;;;;;5083866;28;20017;-68
2023/08/09 00:21:47;;;;;;;9.73;2.47;;;12.40;99.90;;;;;;5083511;28;20071;-69
2023/08/09 00:24:13;;;;;;;9.48;2.28;;;12.40;99.90;;;;;;5083628;28;20058;-69
2023/08/09 00:26:39;;;;;;;6.43;2.38;;;12.40;99.90;;;;;;5083828;28;20036;-70
2023/08/09 00:29:04;;;;;;;10.80;2.90;;;12.40;99.90;;;;;;5083659;28;20025;-69
2023/08/09 00:31:30;;;;;;;8.63;2.78;;;12.30;99.90;;;;;;5083434;28;20033;-70
2023/08/09 00:33:56;;;;;;;9.70;2.78;;;12.30;99.90;;;;;;5081701;28;20067;-69
2023/08/09 00:36:27;;;;;;;6.70;2.47;;;12.30;99.90;;;;;;5082861;28;20025;-70
2023/08/09 00:38:52;;;;;;;6.78;2.55;;;12.30;99.90;;;;;;5083353;28;20032;-69
2023/08/09 00:41:19;;;;;;;8.80;2.42;;;12.30;99.90;;;;;;5082599;28;20021;-68
2023/08/09 00:43:45;;;;;;;7.20;2.00;;;12.30;99.90;;;;;;5083129;28;20021;-67
2023/08/09 00:46:11;;;;;;;9.05;2.17;;;12.30;99.90;;;;;;5081879;28;20048;-71
2023/08/09 00:48:37;;;;;;;6.90;2.50;;;12.30;99.90;;;;;;5082873;28;20082;-68
2023/08/09 00:51:03;;;;;;;7.35;2.10;;;12.30;99.90;;;;;;5082982;28;20431;-70
2023/08/09 00:53:30;;;;;;;12.00;2.25;;;12.30;99.90;;;;;;5083379;28;20592;-69
2023/08/09 00:55:56;;;;;;;7.20;2.20;;;12.20;99.90;;;;;;5082661;28;20043;-70
2023/08/09 00:58:21;;;;;;;10.35;2.13;;;12.20;99.90;;;;;;5082494;28;20036;-69
2023/08/09 01:00:47;;;;;;;6.35;2.30;;;12.20;99.90;;;;;;5082839;28;20035;-69
2023/08/09 01:03:14;;;;;;;7.57;2.05;;;12.20;99.90;;;;;;5082768;28;20032;-68
2023/08/09 01:06:06;;;;;;;5.53;2.00;;;12.20;99.90;;;;;;5082809;28;21029;-70
2023/08/09 01:09:00;;;;;;;4.20;1.95;;;12.20;99.90;;;;;;5082944;28;20059;-70
2023/08/09 01:11:48;;;;;;;6.47;1.95;;;12.20;99.90;;;;;;5082057;28;20028;-69
2023/08/09 01:14:15;;;;;;;9.07;2.05;;;12.20;99.90;;;;;;5082149;28;20032;-69
2023/08/09 01:16:43;;;;;;;3.97;1.90;;;12.20;99.90;;;;;;5082109;28;20036;-68
2023/08/09 01:19:14;;;;;;;10.63;1.60;;;12.20;99.90;;;;;;5082328;28;20017;-69
2023/08/09 01:21:44;;;;;;;6.43;1.70;;;12.20;99.90;;;;;;5082170;28;20463;-70
2023/08/09 01:24:12;;;;;;;7.45;2.22;;;12.20;99.90;;;;;;5081932;28;20048;-69
2023/08/09 01:26:39;;;;;;;9.23;1.70;;;12.10;99.90;;;;;;5082258;28;20028;-68
2023/08/09 01:29:05;;;;;;;4.00;2.00;;;12.10;99.90;;;;;;5082505;28;20032;-68
2023/08/09 01:31:31;;;;;;;7.10;2.03;;;12.10;99.90;;;;;;5081662;28;20047;-71
2023/08/09 01:33:56;;;;;;;6.18;1.77;;;12.10;99.90;;;;;;5080945;28;20033;-69
2023/08/09 01:36:28;;;;;;;7.80;2.10;;;12.20;99.90;;;;;;5081967;28;20019;-69
2023/08/09 01:39:06;;;;;;;8.02;2.38;;;12.10;99.90;;;;;;5080913;28;20024;-69
2023/08/09 01:41:33;;;;;;;7.65;2.00;;;12.10;99.90;;;;;;5081967;28;20043;-68
2023/08/09 01:43:59;;;;;;;5.43;2.15;;;12.20;99.90;;;;;;5081912;28;20372;-71
2023/08/09 01:46:26;;;;;;;5.70;2.33;;;12.20;99.90;;;;;;5080649;28;20020;-69
2023/08/09 01:48:51;;;;;;;9.50;2.47;;;12.20;99.90;;;;;;5082328;28;20027;-69
2023/08/09 01:51:18;;;;;;;8.20;2.35;;;12.20;99.90;;;;;;5081333;28;20068;-70
2023/08/09 01:53:44;;;;;;;5.93;2.20;;;12.20;99.90;;;;;;5080672;28;20492;-70
2023/08/09 01:56:10;;;;;;;7.65;2.38;;;12.20;99.90;;;;;;5081945;28;20025;-70
2023/08/09 01:58:37;;;;;;;7.20;2.33;;;12.20;99.90;;;;;;5081852;28;20020;-70
2023/08/09 02:01:02;;;;;;;9.00;2.53;;;12.30;99.90;;;;;;5080644;28;20021;-69
2023/08/09 02:03:28;;;;;;;5.50;2.30;;;12.30;99.90;;;;;;5081778;28;20024;-70
2023/08/09 02:05:53;;;;;;;6.18;2.25;;;12.30;99.90;;;;;;5081792;28;20505;-70
2023/08/09 02:08:19;;;;;;;6.90;1.95;;;12.30;99.90;;;;;;5080128;28;20047;-69
2023/08/09 02:10:45;;;;;;;7.63;2.40;;;12.30;99.90;;;;;;5079883;28;20028;-71
2023/08/09 02:13:10;;;;;;;5.88;2.72;;;12.30;99.90;;;;;;5080322;28;20029;-70
2023/08/09 02:15:36;;;;;;;5.70;2.50;;;12.30;99.90;;;;;;5081096;28;20036;-71
2023/08/09 02:18:02;;;;;;;7.30;2.50;;;12.30;99.90;;;;;;5081348;28;20485;-69
2023/08/09 02:20:28;;;;;;;8.50;2.88;;;12.30;99.90;;;;;;5081529;28;20024;-69
2023/08/09 02:22:53;;;;;;;8.50;2.83;;;12.30;99.90;;;;;;5081470;28;20031;-68
2023/08/09 02:25:19;;;;;;;7.25;2.83;;;12.30;99.90;;;;;;5081471;28;20101;-69
2023/08/09 02:27:46;;;;;;;9.77;3.40;;;12.30;99.90;;;;;;5081332;28;20022;-68
2023/08/09 02:30:12;;;;;;;9.75;3.13;;;12.30;99.90;;;;;;5081232;28;20058;-70
2023/08/09 02:32:38;;;;;;;8.15;2.95;;;12.30;99.90;;;;;;5079813;28;20020;-69
2023/08/09 02:35:05;;;;;;;5.70;2.90;;;12.30;99.90;;;;;;5081763;28;20047;-68
2023/08/09 02:37:31;;;;;;;6.72;3.25;;;12.30;99.90;;;;;;5080459;28;20021;-69
2023/08/09 02:39:57;;;;;;;9.85;3.05;;;12.30;99.90;;;;;;5079693;28;20032;-69
2023/08/09 02:42:23;;;;;;;13.13;3.70;;;12.30;99.90;;;;;;5081287;28;20029;-69
2023/08/09 02:44:49;;;;;;;7.90;3.20;;;12.30;99.90;;;;;;5080482;28;20474;-69
2023/08/09 02:47:18;;;;;;;9.27;3.13;;;12.30;99.90;;;;;;5080998;28;20047;-70
2023/08/09 02:49:44;;;;;;;8.45;3.38;;;12.30;99.90;;;;;;5079508;28;20039;-68
2023/08/09 02:52:09;;;;;;;9.98;3.63;;;12.30;99.90;;;;;;5080844;28;20053;-70
2023/08/09 02:54:36;;;;;;;6.47;3.15;;;12.30;99.90;;;;;;5080800;28;20037;-69
2023/08/09 02:57:01;;;;;;;8.00;3.67;;;12.30;99.90;;;;;;5081494;28;20020;-69
2023/08/09 02:59:27;;;;;;;7.80;3.20;;;12.30;99.90;;;;;;5080786;28;20044;-68
2023/08/09 03:01:53;;;;;;;12.57;4.00;;;12.30;99.90;;;;;;5081041;28;20039;-69
2023/08/09 03:04:18;;;;;;;8.20;3.50;;;12.30;99.90;;;;;;5080562;28;20469;-70
2023/08/09 03:06:44;;;;;;;8.82;3.60;;;12.30;99.90;;;;;;5080888;28;20024;-68
2023/08/09 03:09:10;;;;;;;7.10;3.33;;;12.30;99.90;;;;;;5079898;28;20023;-68
2023/08/09 03:11:36;;;;;;;7.40;3.58;;;12.30;99.90;;;;;;5081453;28;20027;-68
2023/08/09 03:14:02;;;;;;;8.77;3.67;;;12.30;99.90;;;;;;5080624;28;20064;-69
2023/08/09 03:16:27;;;;;;;11.60;4.07;;;12.30;99.90;;;;;;5080941;28;20024;-68
2023/08/09 03:18:53;;;;;;;9.85;4.07;;;12.20;99.90;;;;;;5081171;28;20028;-68
2023/08/09 03:21:18;;;;;;;7.93;4.20;;;12.30;99.90;;;;;;5083871;28;20059;-68
2023/08/09 03:23:44;;;;;;;8.73;4.32;;;12.30;99.90;;;;;;5084788;28;20085;-74
2023/08/09 03:26:10;;;;;;;8.38;4.10;;;12.30;99.90;;;;;;5084745;28;20024;-69
2023/08/09 03:28:36;;;;;;;11.40;4.03;;;12.20;99.90;;;;;;5084686;28;20032;-69
2023/08/09 03:31:03;;;;;;;10.98;4.13;;;12.20;99.90;;;;;;5084729;28;20066;-67
2023/08/09 03:33:29;;;;;;;13.68;4.53;;;12.20;99.90;;;;;;5084155;28;20048;-69
2023/08/09 03:35:54;;;;;;;11.52;5.03;;;12.10;99.90;;;;;;5084362;28;20724;-69
2023/08/09 03:38:21;;;;;;;9.02;4.43;;;12.20;99.90;;;;;;5084751;28;20627;-68
2023/08/09 03:40:46;;;;;;;14.65;4.32;;;12.20;99.90;;;;;;5083570;28;20020;-69
2023/08/09 03:43:12;;;;;;;10.32;4.47;;;12.10;99.90;;;;;;5084341;28;20401;-69
2023/08/09 03:45:38;;;;;;;10.73;4.43;;;12.10;99.90;;;;;;5084422;28;20032;-68
2023/08/09 03:48:04;;;;;;;14.05;4.82;;;12.10;99.90;;;;;;5083065;28;20025;-69
2023/08/09 03:50:29;;;;;;;12.13;5.40;;;12.10;99.90;;;;;;5084256;28;20028;-67
2023/08/09 03:52:55;;;;;;;9.68;4.40;;;12.10;99.90;;;;;;5084461;28;20041;-68
2023/08/09 03:55:21;;;;;;;12.77;4.63;;;12.10;99.90;;;;;;5082628;28;20050;-67
2023/08/09 03:57:46;;;;;;;11.63;4.78;;;12.00;99.90;;;;;;5082632;28;20021;-69
2023/08/09 04:00:17;;;;;;;14.23;5.38;;;12.00;99.90;;;;;;5084275;28;20473;-71
2023/08/09 04:02:47;;;;;;;12.68;5.07;;;12.00;99.90;;;;;;5083620;28;20024;-69
2023/08/09 04:05:15;;;;;;;14.52;5.70;;;12.00;99.90;;;;;;5083728;28;20025;-68
2023/08/09 04:07:42;;;;;;;14.93;5.20;;;12.00;99.90;;;;;;5083401;28;20084;-72
2023/08/09 04:10:08;;;;;;;10.50;4.65;;;12.00;99.90;;;;;;5083105;28;20028;-68
2023/08/09 04:12:37;;;;;;;12.98;5.97;;;12.00;99.90;;;;;;5083581;28;20024;-73
2023/08/09 04:15:04;;;;;;;14.98;5.30;;;11.90;99.90;;;;;;5083761;28;20040;-69
2023/08/09 04:17:31;;;;;;;13.75;5.45;;;11.90;99.90;;;;;;5083308;28;20027;-67
2023/08/09 04:19:57;;;;;;;11.93;5.53;;;11.90;99.90;;;;;;5083745;28;20023;-70
2023/08/09 04:22:23;;;;;;;13.98;5.38;;;11.90;99.90;;;;;;5083534;28;20020;-69
2023/08/09 04:24:50;;;;;;;13.65;6.15;;;11.90;99.90;;;;;;5083094;28;20036;-68
2023/08/09 04:27:15;;;;;;;11.98;5.20;;;11.90;99.90;;;;;;5083191;28;20024;-69
2023/08/09 04:29:41;;;;;;;15.25;5.45;;;11.90;99.90;;;;;;5083380;28;20084;-69
2023/08/09 04:32:07;;;;;;;12.23;5.68;;;11.90;99.90;;;;;;5082038;28;20021;-68
2023/08/09 04:34:33;;;;;;;12.52;5.95;;;11.90;99.90;;;;;;5082642;28;20123;-68
2023/08/09 04:36:59;;;;;;;19.50;6.47;;;11.90;99.90;;;;;;5083512;28;20020;-68
2023/08/09 04:39:24;;;;;;;11.10;5.95;;;11.90;99.90;;;;;;5082928;28;20043;-68
2023/08/09 04:41:50;;;;;;;13.50;6.40;;;11.90;99.90;;;;;;5083373;28;20694;-68
2023/08/09 04:44:16;;;;;;;13.93;5.80;;;11.90;99.90;;;;;;5083168;28;20056;-67
2023/08/09 04:46:43;;;;;;;13.20;5.90;;;11.90;99.90;;;;;;5082654;28;20085;-69
2023/08/09 04:49:09;;;;;;;17.20;6.35;;;11.90;99.90;;;;;;5083469;28;20033;-69
2023/08/09 04:51:34;;;;;;;15.95;5.90;;;12.00;99.90;;;;;;5082777;28;20083;-70
2023/08/09 04:54:00;;;;;;;13.07;5.75;;;11.90;99.90;;;;;;5082738;28;20036;-67
2023/08/09 04:56:26;;;;;;;12.20;5.85;;;12.00;99.90;;;;;;5083070;28;20032;-68
2023/08/09 04:58:51;;;;;;;15.95;5.90;;;12.00;99.90;;;;;;5082782;28;20052;-69
2023/08/09 05:01:17;;;;;;;17.13;5.88;;;12.00;99.90;;;;;;5080652;28;20028;-69
2023/08/09 05:03:42;;;;;;;13.98;5.70;;;12.00;99.90;;;;;;5082654;28;20056;-71
2023/08/09 05:06:08;;;;;;;13.80;5.63;;;12.00;99.90;;;;;;5082533;28;20106;-69
2023/08/09 05:08:34;;;;;;;14.02;5.95;;;12.00;99.90;;;;;;5082655;28;20043;-69
2023/08/09 05:11:00;;;;;;;14.32;5.30;;;12.00;99.90;;;;;;5082215;28;20020;-67
2023/08/09 05:13:25;;;;;;;12.35;6.13;;;12.00;99.90;;;;;;5082603;28;20025;-72
2023/08/09 05:15:51;;;;;;;14.85;5.97;;;12.10;99.90;;;;;;5082695;28;20043;-67
2023/08/09 05:18:17;;;;;;;12.05;5.57;;;12.10;99.90;;;;;;5082479;28;20044;-69
2023/08/09 05:20:43;;;;;;;16.73;5.78;;;12.10;99.90;;;;;;5081802;28;20035;-67
2023/08/09 05:23:08;;;;;;;14.77;5.70;;;12.10;99.90;;;;;;5082300;28;20028;-68
2023/08/09 05:25:34;;;;;;;14.60;5.38;;;12.20;99.90;;;;;;5082140;28;20029;-70
2023/08/09 05:28:00;;;;;;;11.70;5.15;;;12.20;99.90;;;;;;5080008;28;20087;-68
2023/08/09 05:30:26;;;;;;;14.05;5.43;;;12.20;99.90;;;;;;5082393;28;20027;-69
2023/08/09 05:32:51;;;;;;;13.88;4.97;;;12.30;99.90;;;;;;5082147;28;20017;-68
2023/08/09 05:35:17;;;;;;;17.67;5.03;;;12.30;99.90;;;;;;5081496;28;20044;-70
2023/08/09 05:37:42;;;;;;;10.38;5.35;;;12.40;99.90;;;;;;5081717;28;20021;-67
2023/08/09 05:40:09;;;;;;;11.20;5.00;;;12.40;99.90;;;;;;5082206;28;20056;-68
2023/08/09 05:42:36;;;;;;;16.85;5.10;;;12.40;99.90;;;;;;5081265;28;20017;-69
2023/08/09 05:45:01;;;;;;;10.75;5.15;;;12.50;99.90;;;;;;5081770;28;20020;-69
2023/08/09 05:47:27;;;;;;;12.80;4.40;;;12.50;99.90;;;;;;5081810;28;20069;-69
2023/08/09 05:49:53;;;;;;;10.50;4.75;;;12.60;99.90;;;;;;5081695;28;20021;-71
2023/08/09 05:52:18;;;;;;;12.27;4.60;;;12.60;99.90;;;;;;5080421;28;20062;-71
2023/08/09 05:54:44;;;;;;;11.82;4.68;;;12.70;99.90;;;;;;5080307;28;20056;-70
2023/08/09 05:57:10;;;;;;;11.77;4.68;;;12.70;99.90;;;;;;5081417;28;20488;-70
2023/08/09 05:59:36;;;;;;;8.35;4.28;;;12.70;99.90;;;;;;5077960;28;20040;-68
2023/08/09 06:02:03;;;;;;;9.27;4.18;;;12.70;99.90;;;;;;5079405;28;20116;-69
2023/08/09 06:04:28;;;;;;;8.27;4.20;;;12.70;99.90;;;;;;5080566;28;20028;-68
2023/08/09 06:06:58;;;;;;;14.13;4.60;;;12.70;99.90;;;;;;5081862;28;20024;-68
2023/08/09 06:09:24;;;;;;;12.50;4.18;;;12.70;99.90;;;;;;5080020;28;20025;-68
2023/08/09 06:11:49;;;;;;;11.38;4.38;;;12.80;99.90;;;;;;5081386;28;20027;-69
2023/08/09 06:14:15;;;;;;;8.55;4.30;;;12.80;99.90;;;;;;5079124;28;20508;-69
2023/08/09 06:16:45;;;;;;;13.07;4.30;;;12.80;99.90;;;;;;5080998;28;20056;-69
2023/08/09 06:19:11;;;;;;;11.68;4.13;;;12.90;99.90;;;;;;5081208;28;20032;-69
2023/08/09 06:21:38;;;;;;;10.70;3.92;;;12.90;99.90;;;;;;5081433;28;20029;-69
2023/08/09 06:24:05;;;;;;;10.48;3.78;;;13.00;99.90;;;;;;5081135;28;20031;-69
2023/08/09 06:26:32;;;;;;;8.93;3.88;;;13.00;99.90;;;;;;5081182;28;20024;-70
2023/08/09 06:28:57;;;;;;;7.70;3.58;;;13.10;99.90;;;;;;5080394;28;20024;-69
2023/08/09 06:31:23;;;;;;;8.77;3.35;;;13.20;99.90;;;;;;5080991;28;20052;-72
2023/08/09 06:33:49;;;;;;;11.13;3.53;;;13.20;99.90;;;;;;5080067;28;20048;-70
2023/08/09 06:36:15;;;;;;;9.95;3.83;;;13.30;99.90;;;;;;5081008;28;20040;-68
2023/08/09 06:38:40;;;;;;;10.90;3.15;;;13.30;99.90;;;;;;5081357;28;20067;-68
2023/08/09 06:41:06;;;;;;;7.18;3.20;;;13.40;99.90;;;;;;5080730;28;20021;-69
2023/08/09 06:43:31;;;;;;;8.60;3.25;;;13.50;99.90;;;;;;5079986;28;20029;-68
2023/08/09 06:45:58;;;;;;;5.65;2.80;;;13.50;99.90;;;;;;5080874;28;20040;-67
2023/08/09 06:48:24;;;;;;;9.30;3.30;;;13.60;99.90;;;;;;5079985;28;20027;-67
2023/08/09 06:50:50;;;;;;;7.35;3.15;;;13.70;99.90;;;;;;5080697;28;20025;-68
2023/08/09 06:53:16;;;;;;;13.18;2.80;;;13.70;99.90;;;;;;5078591;28;20044;-70
2023/08/09 06:55:42;;;;;;;7.55;2.60;;;13.80;99.90;;;;;;5082968;28;20545;-71
2023/08/09 06:58:07;;;;;;;6.30;2.38;;;13.90;99.90;;;;;;5084415;28;20026;-70
2023/08/09 07:00:33;;;;;;;8.23;2.97;;;14.00;99.90;;;;;;5084790;28;20020;-69
2023/08/09 07:02:59;;;;;;;13.25;2.83;;;14.10;99.90;;;;;;5084017;28;20041;-68
2023/08/09 07:05:25;;;;;;;7.72;2.30;;;14.20;99.90;;;;;;5084885;28;20028;-69
2023/08/09 07:07:57;;;;;;;8.63;2.40;;;14.30;99.90;;;;;;5083863;28;20024;-68
2023/08/09 07:10:27;;;;;;;6.75;2.05;;;14.30;99.90;;;;;;5085234;28;20020;-69
2023/08/09 07:12:52;;;;;;;9.18;2.10;;;14.40;99.90;;;;;;5084790;28;20032;-68
2023/08/09 07:15:18;;;;;;;8.45;2.60;;;14.50;99.90;;;;;;5084565;28;20041;-68
2023/08/09 07:17:44;;;;;;;7.78;2.13;;;14.60;99.90;;;;;;5085003;28;20060;-68
2023/08/09 07:20:11;;;;;;;9.50;2.20;;;14.70;99.90;;;;;;5084418;28;20100;-72
2023/08/09 07:22:39;;;;;;;11.60;2.53;;;14.80;99.90;;;;;;5084667;28;20017;-70
2023/08/09 07:25:07;;;;;;;4.68;1.80;;;14.90;99.90;;;;;;5084759;28;20442;-76
2023/08/09 07:27:33;;;;;;;6.22;2.40;;;14.90;99.90;;;;;;5083693;28;20035;-73
2023/08/09 07:29:59;;;;;;;8.15;1.77;;;15.00;99.90;;;;;;5083346;28;20029;-70
2023/08/09 07:32:25;;;;;;;6.43;2.30;;;15.10;99.90;;;;;;5083539;28;20518;-72
2023/08/09 07:34:51;;;;;;;3.38;1.40;;;15.20;99.90;;;;;;5083925;28;20033;-70
2023/08/09 07:37:16;;;;;;;3.13;1.38;;;15.30;99.90;;;;;;5084636;28;20042;-71
2023/08/09 07:39:42;;;;;;;6.45;1.85;;;15.40;99.90;;;;;;5080874;28;20021;-70
2023/08/09 07:42:08;;;;;;;5.82;1.83;;;15.50;99.90;;;;;;5083486;28;20020;-73
2023/08/09 07:44:33;;;;;;;7.40;1.95;;;15.60;99.90;;;;;;5082925;28;20056;-73
2023/08/09 07:46:59;;;;;;;7.88;1.65;;;15.60;99.90;;;;;;5082344;28;20032;-70
2023/08/09 07:49:25;;;;;;;6.43;1.58;;;15.60;99.90;;;;;;5084001;28;20033;-72
2023/08/09 07:51:51;;;;;;;8.77;1.98;;;15.70;99.90;;;;;;5084013;28;20429;-73
2023/08/09 07:54:17;;;;;;;4.38;1.50;;;15.70;99.90;;;;;;5083097;28;20523;-70
2023/08/09 07:56:43;;;;;;;10.07;1.85;;;15.70;99.90;;;;;;5083237;28;20416;-69
2023/08/09 07:59:09;;;;;;;8.10;1.67;;;15.70;99.90;;;;;;5084523;28;20020;-72
2023/08/09 08:01:35;;;;;;;5.68;1.73;;;15.60;99.90;;;;;;5084279;28;20070;-69
2023/08/09 08:04:00;;;;;;;8.15;1.70;;;15.60;99.90;;;;;;5083743;28;20028;-69
2023/08/09 08:06:27;;;;;;;5.72;1.42;;;15.70;99.90;;;;;;5083282;28;20055;-69
2023/08/09 08:08:54;;;;;;;9.38;1.60;;;15.80;99.90;;;;;;5081162;28;20012;-75
2023/08/09 08:11:19;;;;;;;8.25;2.05;;;15.90;99.90;;;;;;5081778;28;20389;-68
2023/08/09 08:13:45;;;;;;;7.10;1.73;;;16.00;99.90;;;;;;5083752;28;20028;-71
2023/08/09 08:16:10;;;;;;;6.30;1.70;;;16.00;99.90;;;;;;5082632;28;20548;-71
2023/08/09 08:18:36;;;;;;;8.50;1.98;;;16.10;99.90;;;;;;5082508;28;20029;-72
2023/08/09 08:21:03;;;;;;;10.75;1.70;;;16.10;99.90;;;;;;5081446;28;20025;-73
2023/08/09 08:23:30;;;;;;;6.55;1.63;;;16.20;99.90;;;;;;5083467;28;20017;-72
2023/08/09 08:25:56;;;;;;;5.13;1.52;;;16.20;99.90;;;;;;5083207;28;20027;-72
2023/08/09 08:28:22;;;;;;;10.02;1.92;;;16.30;99.90;;;;;;5082183;28;20048;-74
2023/08/09 08:30:48;;;;;;;5.18;1.40;;;16.40;99.90;;;;;;5083114;28;20016;-73
2023/08/09 08:33:13;;;;;;;3.95;1.35;;;16.40;99.90;;;;;;5083873;28;20051;-70
2023/08/09 08:35:43;;;;;;;6.97;1.33;;;16.40;99.90;;;;;;5083252;28;20049;-73
2023/08/09 08:38:09;;;;;;;5.13;1.50;;;16.40;99.90;;;;;;5082785;28;20028;-72
2023/08/09 08:40:35;;;;;;;5.43;1.20;;;16.40;99.90;;;;;;5082191;28;20025;-71
2023/08/09 08:43:01;;;;;;;7.25;1.60;;;16.40;99.90;;;;;;5080896;28;20040;-69
2023/08/09 08:45:27;;;;;;;5.30;1.08;;;16.50;99.90;;;;;;5083229;28;20028;-68
2023/08/09 08:47:52;;;;;;;6.28;1.60;;;16.60;99.90;;;;;;5082998;28;20084;-71
2023/08/09 08:50:19;;;;;;;6.80;1.10;;;16.70;99.90;;;;;;5082905;28;20024;-71
2023/08/09 08:52:49;;;;;;;7.70;1.30;;;16.90;99.90;;;;;;5081232;28;20048;-73
2023/08/09 08:55:15;;;;;;;6.80;1.52;;;17.00;99.90;;;;;;5083006;28;20041;-73
2023/08/09 08:57:42;;;;;;;8.10;1.75;;;17.20;99.90;;;;;;5082821;28;20024;-69
2023/08/09 09:00:15;;;;;;;4.82;1.17;;;17.40;99.90;;;;;;5082670;28;20084;-72
2023/08/09 09:02:45;;;;;;;9.70;1.58;;;17.50;99.90;;;;;;5081043;28;20032;-73
2023/08/09 09:05:12;;;;;;;7.18;1.45;;;17.60;99.90;;;;;;5080229;28;20074;-76
2023/08/09 09:07:39;;;;;;;6.38;1.35;;;17.70;99.90;;;;;;5082351;28;20071;-71
2023/08/09 09:10:09;;;;;;;3.78;1.25;;;17.90;99.90;;;;;;5081362;28;20020;-71
2023/08/09 09:12:37;;;;;;;4.88;1.10;;;17.90;99.90;;;;;;5081327;28;20032;-69
2023/08/09 09:15:06;;;;;;;5.22;1.17;;;17.90;99.90;;;;;;5081210;28;20123;-72
2023/08/09 09:17:40;;;;;;;6.35;1.40;;;17.80;99.90;;;;;;5080236;28;20833;-74
2023/08/09 09:20:10;;;;;;;4.10;1.10;;;17.70;99.90;;;;;;5082428;28;20985;-77
2023/08/09 09:22:36;;;;;;;5.57;1.23;;;17.60;99.90;;;;;;5081710;28;20274;-70
2023/08/09 09:25:02;;;;;;;9.43;1.50;;;17.60;99.90;;;;;;5080186;28;20051;-70
2023/08/09 09:27:30;;;;;;;6.93;1.20;;;17.70;99.90;;;;;;5081326;28;20031;-72
2023/08/09 09:30:19;;;;;;;5.85;1.20;;;17.90;99.90;;;;;;5081551;28;20021;-71
2023/08/09 09:32:53;;;;;;;5.53;1.13;;;18.00;99.90;;;;;;5080383;28;20051;-71
2023/08/09 09:35:29;;;;;;;5.95;1.35;;;18.20;99.90;;;;;;5081235;28;20039;-70
2023/08/09 09:37:58;;;;;;;3.70;1.13;;;18.40;99.90;;;;;;5080643;28;20028;-71
2023/08/09 09:40:33;;;;;;;4.93;1.20;;;18.40;99.90;;;;;;5079421;28;20020;-70
2023/08/09 09:42:59;;;;;;;3.38;1.10;;;18.40;99.90;;;;;;5080581;28;21084;-69
2023/08/09 09:45:27;;;;;;;5.68;1.05;;;18.30;99.90;;;;;;5078748;28;20036;-72
2023/08/09 09:47:54;;;;;;;6.35;1.13;;;18.20;99.90;;;;;;5080372;28;20035;-70
2023/08/09 09:50:25;;;;;;;3.38;0.98;;;18.00;99.90;;;;;;5081742;28;20020;-72
2023/08/09 09:52:52;;;;;;;8.80;1.42;;;17.90;99.90;;;;;;5080527;28;20121;-72
2023/08/09 09:55:25;;;;;;;4.75;1.10;;;17.80;99.90;;;;;;5079266;28;20044;-74
2023/08/09 09:57:52;;;;;;;4.67;1.47;;;17.80;99.90;;;;;;5080565;28;20378;-70
2023/08/09 10:00:25;;;;;;;5.40;1.30;;;17.80;99.90;;;;;;5080973;28;20048;-71
2023/08/09 10:02:52;;;;;;;4.15;0.80;;;17.90;99.90;;;;;;5078211;28;20457;-71
2023/08/09 10:05:21;;;;;;;3.33;1.10;;;17.90;99.90;;;;;;5080080;28;20025;-72
2023/08/09 10:07:51;;;;;;;5.43;1.95;;;18.00;99.90;;;;;;5074921;28;20107;-73
2023/08/09 10:10:17;;;;;;;5.28;1.20;;;18.20;99.90;;;;;;5080005;28;20032;-69
2023/08/09 10:12:55;;;;;;;4.80;1.08;;;18.30;99.90;;;;;;5080946;28;20039;-69
2023/08/09 10:15:26;;;;;;;4.25;1.35;;;18.30;99.90;;;;;;5079523;28;20047;-79
2023/08/09 10:17:56;;;;;;;9.70;1.33;;;18.20;99.90;;;;;;5079876;28;20028;-75
2023/08/09 10:20:24;;;;;;;10.07;1.10;;;18.00;99.90;;;;;;5081593;28;20072;-73
2023/08/09 10:22:50;;;;;;;5.35;1.08;;;17.90;99.90;;;;;;5078590;28;20078;-71
2023/08/09 10:25:15;;;;;;;3.90;1.00;;;17.80;99.90;;;;;;5080995;28;20025;-69
2023/08/09 10:27:53;;;;;;;5.85;1.17;;;17.70;99.90;;;;;;5081058;28;20043;-70
2023/08/09 10:30:25;;;;;;;7.57;1.27;;;17.70;99.90;;;;;;5078611;28;20432;-73
2023/08/09 10:32:53;;;;;;;4.38;1.10;;;17.80;99.90;;;;;;5080717;28;20027;-71
2023/08/09 10:35:40;;;;;;;7.70;1.27;;;17.90;99.90;;;;;;5079921;28;20024;-69
2023/08/09 10:38:07;;;;;;;6.47;1.20;;;18.20;99.90;;;;;;5080147;28;20081;-71
2023/08/09 10:40:36;;;;;;;8.48;1.30;;;18.40;99.90;;;;;;5081407;28;20032;-74
2023/08/09 10:43:01;;;;;;;3.55;1.50;;;18.60;99.90;;;;;;5080884;28;20070;-73
2023/08/09 10:45:30;;;;;;;5.30;1.02;;;18.70;99.90;;;;;;5080120;28;20032;-69
2023/08/09 10:48:22;;;;;;;4.60;0.90;;;18.60;99.90;;;;;;5081095;28;20035;-72
2023/08/09 10:51:01;;;;;;;7.68;1.17;;;18.50;99.90;;;;;;5080544;28;20028;-75
2023/08/09 10:53:27;;;;;;;3.92;0.98;;;18.40;99.90;;;;;;5079561;28;20071;-71
2023/08/09 10:55:56;;;;;;;4.20;0.90;;;18.30;99.90;;;;;;5079841;28;20444;-74
2023/08/09 10:58:28;;;;;;;3.60;1.02;;;18.30;99.90;;;;;;5080441;28;20025;-74
2023/08/09 11:00:54;;;;;;;3.95;1.10;;;18.50;99.90;;;;;;5073750;28;20017;-76
2023/08/09 11:03:20;;;;;;;4.60;1.15;;;18.70;99.90;;;;;;5077855;28;20099;-73
2023/08/09 11:05:46;;;;;;;3.83;1.10;;;19.00;99.90;;;;;;5079820;28;20028;-73
2023/08/09 11:08:17;;;;;;;3.08;0.77;;;19.20;99.90;;;;;;5078879;28;20060;-77
2023/08/09 11:10:43;;;;;;;8.60;1.10;;;19.40;99.90;;;;;;5079730;28;20067;-69
2023/08/09 11:13:14;;;;;;;5.03;1.13;;;19.60;99.90;;;;;;5079394;28;20032;-73
2023/08/09 11:15:48;;;;;;;7.25;1.33;;;19.70;99.90;;;;;;5080205;28;20033;-72
2023/08/09 11:18:15;;;;;;;4.88;0.98;;;19.80;99.90;;;;;;5078316;28;20108;-72
2023/08/09 11:20:40;;;;;;;5.43;1.08;;;19.90;99.90;;;;;;5080139;28;20051;-74
2023/08/09 11:23:07;;;;;;;4.93;1.13;;;20.10;99.90;;;;;;5076954;28;20017;-74
2023/08/09 11:25:33;;;;;;;5.55;1.30;;;20.30;99.90;;;;;;5079338;28;20040;-74
2023/08/09 11:28:02;;;;;;;2.53;0.80;;;20.40;99.90;;;;;;5079499;28;20020;-73
2023/08/09 11:30:31;;;;;;;5.38;1.30;;;20.50;99.90;;;;;;5077645;28;20528;-71
2023/08/09 11:32:59;;;;;;;2.95;1.20;;;20.80;99.90;;;;;;5077269;28;20036;-71
2023/08/09 11:35:31;;;;;;;3.95;0.90;;;20.70;99.90;;;;;;5078563;28;20032;-72
2023/08/09 11:37:57;;;;;;;2.35;1.10;;;20.70;99.90;;;;;;5079913;28;20596;-75
2023/08/09 11:40:23;;;;;;;3.22;1.13;;;20.70;99.90;;;;;;5080790;28;20044;-72
2023/08/09 11:42:55;;;;;;;2.95;0.98;;;20.70;99.90;;;;;;5084251;28;20024;-71
2023/08/09 11:45:20;;;;;;;2.65;0.90;;;20.40;99.90;;;;;;5082227;28;20035;-72
2023/08/09 11:47:51;;;;;;;2.45;0.82;;;20.20;99.90;;;;;;5083717;28;20064;-71
2023/08/09 11:50:24;;;;;;;3.17;0.93;;;20.10;99.90;;;;;;5082204;28;20024;-71
2023/08/09 11:52:54;;;;;;;3.42;1.00;;;19.90;99.90;;;;;;5083027;28;20044;-70
2023/08/09 11:55:21;;;;;;;4.78;0.95;;;19.80;99.90;;;;;;5082005;28;20118;-72
2023/08/09 11:57:47;;;;;;;4.35;1.35;;;19.70;99.90;;;;;;5083629;28;20031;-74
2023/08/09 12:00:15;;;;;;;3.90;1.10;;;19.80;99.90;;;;;;5082661;28;20025;-71
2023/08/09 12:02:40;;;;;;;5.18;1.23;;;20.10;99.90;;;;;;5080748;28;20016;-74
2023/08/09 12:05:14;;;;;;;4.28;1.30;;;20.40;99.90;;;;;;5083361;28;20071;-76
2023/08/09 12:07:40;;;;;;;3.07;0.83;;;20.40;99.90;;;;;;5081703;28;20116;-74
2023/08/09 12:10:10;;;;;;;2.83;0.80;;;20.30;99.90;;;;;;5083665;28;20035;-71
2023/08/09 12:12:37;;;;;;;5.50;0.90;;;20.30;99.90;;;;;;5082799;28;20021;-72
2023/08/09 12:15:04;;;;;;;6.70;0.90;;;20.10;99.90;;;;;;5082329;28;20033;-73
2023/08/09 12:17:30;;;;;;;8.07;1.00;;;20.00;99.90;;;;;;5082591;28;20102;-73
2023/08/09 12:20:06;;;;;;;2.70;0.82;;;20.00;99.90;;;;;;5076817;28;20080;-73
2023/08/09 12:22:33;;;;;;;3.40;0.98;;;20.00;99.90;;;;;;5081319;28;20024;-74
2023/08/09 12:24:59;;;;;;;4.95;1.08;;;20.00;99.90;;;;;;5083928;28;20075;-70
2023/08/09 12:27:26;;;;;;;4.10;1.00;;;20.00;99.90;;;;;;5081377;28;20390;-73
2023/08/09 12:29:52;;;;;;;5.18;1.23;;;19.80;99.90;;;;;;5081008;28;20038;-70
2023/08/09 12:32:19;;;;;;;5.28;1.05;;;19.70;99.90;;;;;;5083576;28;20029;-70
2023/08/09 12:34:44;;;;;;;1.65;0.93;;;19.80;99.90;;;;;;5083275;28;20485;-71
2023/08/09 12:37:11;;;;;;;5.13;1.35;;;19.80;99.90;;;;;;5083050;28;20042;-70
2023/08/09 12:39:36;;;;;;;3.10;0.80;;;19.90;99.90;;;;;;5081494;28;20028;-73
2023/08/09 12:42:03;;;;;;;2.22;1.00;;;20.00;99.90;;;;;;5083246;28;20021;-73
2023/08/09 12:44:29;;;;;;;4.28;1.05;;;20.30;99.90;;;;;;5082127;28;20020;-72